Portada
METAR-TAF:

METAR-TAF

Aeropuertos :

Aeropuerto Internacional de Sharjah

Sarja, Emiratos Árabes Unidos

latitud: 25-20N, longitud: 055-31E, altitud: 35 m

Observación

El informe se hizo hace 41 minutos, a las 02:00 UTC
Viento 4 kt del sureste
Temperatura 17°C
Humedad 68%
Presión 1015 hPa
Visibilidad 10 km o más
sin nubes por debajo de 1500 m y sin presencia de cumulonimbus.

METAR: OMSJ 250200Z 14004KT CAVOK 17/11 Q1015 NOSIG

Hora: 06:41 (02:41 UTC)

Pronóstico

El informe se hizo hace 3 horas y 41 minutos, a las 23:00 UTC
Pronóstico válido del 25 a las 00 UTC al 26 a las 06 UTC
Viento 8 kt del este
Visibilidad 10 km o más
sin nubes por debajo de 1500 m y sin presencia de cumulonimbus.
Probabilidad 30%
del 25 a las 10 UTC al 25 a las 14 UTC
Viento 12 kt del norte-noreste

TAF: OMSJ 242300Z 2500/2606 10008KT CAVOK PROB30 2510/2514 02012KT

Observaciones y pronósticos meteorológicos de más de 4000 aeropuertos (mensajes METAR y TAF).

Los puntos amarillos y rojos representan las estaciones disponibles.

Ponga el ratón en el punto deseado para ver el nombre de la estación.

Haga clic para ver las observaciones y los pronósticos meteorológicos.

Para cambiar el mapa : haga clic en los botones verdes con una cruz de color negro para hacer un zoom, en el botón verde con un guión para alejar o en las flechas verdes para mapas adyacentes.


METAR-TAF: